KISO/ISO METAR and TAF weather

Enter ICAO airport designator
Station Type Date Time Source
KISO METAR 2019/07/15 19:56 UTC NOAA

KISO 151956Z 00000KT 10SM CLR 35/20 A3005


Station Type Date Time Source
KISO Decoded METAR 2019/07/15 19:56 UTC NOAA

Kinston, Kinston Regional Jetport at Stallings Field, NC, United States (KISO) 35-20N 077-37W
Jul 15, 2019 - 03:56 PM EDT / 2019.07.15 1956 UTC
Wind: Calm:0
Visibility: 10 mile(s):0
Sky conditions: clear
Temperature: 95 F (35 C)
Heat index: 99.5 F (37.5 C):1
Dew Point: 68 F (20 C)
Relative Humidity: 41%
Pressure (altimeter): 30.05 in. Hg (1017 hPa)
ob: KISO 151956Z 00000KT 10SM CLR 35/20 A3005
cycle: 20

Station Type Date Time Source
KISO TAF 2019/07/15 18:48 UTC NOAA

TAF KISO 151745Z 1518/1618 35004KT P6SM SCT110
FM160800 19004KT 4SM BR FEW008 FEW200
FM161200 20004KT P6SM FEW008 SCT200
AMD LTD TO CLD VIS AND WIND

Example: see airport list